Date,TemperatureHighF,TemperatureAvgF,TemperatureLowF,DewpointHighF,DewpointAvgF,DewpointLowF,HumidityHigh,HumidityAvg,HumidityLow,PressureMaxIn,PressureMinIn,WindSpeedMaxMPH,WindSpeedAvgMPH,GustSpeedMaxMPH,PrecipitationSumIn
2013-2-1,31.0,26.8,21.9,18.6,8.9,3.4,64,47,32,30.09,29.61,24,6,26,0.00
2013-2-2,30.3,24.7,18.1,17.5,8.8,3.3,76,52,32,30.21,30.00,20,3,24,0.00
2013-2-3,31.9,27.1,21.9,18.5,15.4,11.9,75,62,47,30.00,29.71,8,1,9,0.00
2013-2-4,29.4,25.5,22.2,15.3,9.3,3.6,71,51,36,29.90,29.71,26,4,26,0.00
2013-2-5,30.9,28.2,25.0,23.3,15.8,7.2,80,60,43,29.96,29.86,1,0,2,0.00
2013-2-6,39.1,32.2,24.7,25.0,17.3,-1.7,80,56,27,30.29,29.86,22,2,22,0.00
2013-2-7,33.7,27.1,18.9,14.4,5.8,0.9,52,41,27,30.47,30.28,14,1,14,0.00
2013-2-8,31.8,28.3,21.6,28.4,20.8,8.6,93,75,42,30.36,29.58,16,0,19,1.39
2013-2-9,25.1,22.3,16.7,22.8,16.0,5.3,93,77,59,30.23,29.64,33,5,33,0.32
2013-2-10,38.3,25.2,12.4,19.1,10.6,1.3,67,55,31,30.40,30.23,16,2,16,0.16
2013-2-11,42.3,35.2,24.1,39.0,29.5,14.3,89,80,60,30.29,29.58,11,0,12,0.27
2013-2-12,44.2,39.7,36.5,35.7,29.0,24.4,87,66,50,29.87,29.61,24,4,25,0.00
2013-2-13,47.9,38.7,32.7,29.2,23.5,20.6,80,55,37,29.86,29.66,14,1,17,0.00
2013-2-14,45.8,37.2,29.7,29.5,24.9,21.0,84,63,41,29.93,29.67,12,1,13,0.01
2013-2-15,50.7,40.5,32.5,33.8,31.1,24.8,87,70,48,29.94,29.84,17,1,17,0.00
2013-2-16,40.9,35.8,30.3,31.8,24.8,17.3,85,65,41,29.91,29.66,14,1,19,0.08
2013-2-17,30.7,23.2,15.6,20.0,5.1,-0.8,64,45,33,29.81,29.50,35,7,40,0.00
2013-2-18,31.2,22.5,12.9,9.6,2.4,-2.0,60,43,26,30.13,29.80,30,7,32,0.00
2013-2-19,44.6,36.0,24.4,38.9,25.5,6.4,91,67,42,30.13,29.54,21,1,21,0.15
2013-2-20,38.6,30.6,24.1,34.5,15.8,6.9,85,55,40,29.82,29.54,27,6,27,0.00
2013-2-21,31.8,25.2,21.0,14.7,11.8,9.0,68,56,46,30.23,29.81,41,7,41,0.00
2013-2-22,40.2,31.4,21.1,26.3,19.6,12.1,74,62,47,30.36,30.22,13,2,22,0.00
2013-2-23,39.5,37.3,34.7,35.3,30.7,26.0,89,77,63,30.25,29.80,5,0,5,0.13
2013-2-24,43.5,37.2,33.7,36.8,32.3,25.8,90,83,68,29.86,29.66,21,2,24,0.00
2013-2-25,49.4,38.2,31.3,28.8,26.5,23.6,74,63,41,30.19,29.86,12,1,13,0.00
2013-2-26,43.5,37.4,30.7,30.4,26.9,24.2,80,66,48,30.26,30.01,7,0,7,0.02
2013-2-27,42.9,38.6,34.1,40.7,35.9,30.3,93,90,80,30.02,29.52,5,0,6,1.46
2013-2-28,47.3,41.1,37.0,37.4,35.1,33.2,87,79,66,29.57,29.48,9,0,10,0.00